This is the latest recevied weather packets stored in our database for station/object SQ3VAS-10. If no packets are shown the sender has not sent any weather packets the latest 10 day(s).
| Time | Temp. | Humidity | Pressure | Rain* | Wind** | Luminosity | Snow |
|---|---|---|---|---|---|---|---|
| 1777486714 | 13.33° C | 29% | 1030.8 hPa | - | - | - | - |
| 1777486142 | 13.89° C | 27% | 1030.7 hPa | - | - | - | - |
| 1777484997 | 16.67° C | 23% | 1030.4 hPa | - | - | - | - |
| 1777484427 | 17.22° C | 21% | 1030.2 hPa | - | - | - | - |
| 1777483856 | 18.89° C | 20% | 1030.1 hPa | - | - | - | - |
| 1777483286 | 19.44° C | 20% | 1030.1 hPa | - | - | - | - |
| 1777482712 | 20.56° C | 19% | 1029.9 hPa | - | - | - | - |
| 1777482140 | 21.11° C | 17% | 1029.9 hPa | - | - | - | - |
| 1777481569 | 21.67° C | 17% | 1029.9 hPa | - | - | - | - |
| 1777480997 | 23.33° C | 15% | 1029.7 hPa | - | - | - | - |
| 1777480426 | 23.33° C | 16% | 1029.7 hPa | - | - | - | - |
| 1777479852 | 25° C | 14% | 1029.4 hPa | - | - | - | - |
| 1777478704 | 26.67° C | 12% | 1029.3 hPa | - | - | - | - |
| 1777478133 | 27.22° C | 13% | 1029.2 hPa | - | - | - | - |
| 1777477563 | 28.33° C | 12% | 1029.2 hPa | - | - | - | - |
| 1777476985 | 26.67° C | 13% | 1029.3 hPa | - | - | - | - |
| 1777476412 | 25.56° C | 14% | 1029.3 hPa | - | - | - | - |
| 1777475841 | 26.67° C | 13% | 1029.3 hPa | - | - | - | - |
| 1777475263 | 26.11° C | 13% | 1029.3 hPa | - | - | - | - |
| 1777474692 | 24.44° C | 14% | 1029.5 hPa | - | - | - | - |
| 1777474117 | 23.33° C | 15% | 1029.5 hPa | - | - | - | - |
| 1777473544 | 22.78° C | 15% | 1029.7 hPa | - | - | - | - |
| 1777472966 | 23.89° C | 15% | 1029.4 hPa | - | - | - | - |
| 1777472391 | 22.22° C | 17% | 1029.6 hPa | - | - | - | - |
| 1777471820 | 20.56° C | 17% | 1029.8 hPa | - | - | - | - |
* Rain since midnight (hover to see other rain measurements)
** Current wind speed in m/s (hover to see current wind gust speed)